createdAt,value
2022-11-07T00:00:13.311Z,6.6
2022-11-07T00:01:13.493Z,6.6
2022-11-07T00:02:13.298Z,6.7
2022-11-07T00:03:13.776Z,6.7
2022-11-07T00:04:13.449Z,6.7
2022-11-07T00:05:12.862Z,6.7
2022-11-07T00:06:13.235Z,6.7
2022-11-07T00:07:13.619Z,6.7
2022-11-07T00:08:13.030Z,6.7
2022-11-07T00:11:13.216Z,6.7
2022-11-07T00:12:13.501Z,6.7
2022-11-07T00:13:13.088Z,6.8
2022-11-07T00:14:13.068Z,6.8
2022-11-07T00:15:13.409Z,6.8
2022-11-07T00:16:12.847Z,6.8
2022-11-07T00:17:13.079Z,6.8
2022-11-07T00:18:13.471Z,6.8
2022-11-07T00:19:12.774Z,6.8
2022-11-07T00:22:12.890Z,6.8
2022-11-07T00:23:13.910Z,6.8
2022-11-07T00:24:13.547Z,6.8
2022-11-07T00:25:12.926Z,6.8
2022-11-07T00:26:13.164Z,6.8
2022-11-07T00:27:13.768Z,6.8
2022-11-07T00:28:12.933Z,6.8
2022-11-07T00:29:13.267Z,6.8
2022-11-07T00:30:13.633Z,6.8
2022-11-07T00:31:13.008Z,6.8
2022-11-07T00:32:13.454Z,6.8
2022-11-07T00:33:13.173Z,6.8
2022-11-07T00:34:13.275Z,6.8
2022-11-07T00:35:13.593Z,6.8
2022-11-07T00:36:12.873Z,6.7
2022-11-07T00:37:13.204Z,6.7
2022-11-07T00:38:13.699Z,6.7
2022-11-07T00:39:13.009Z,6.7
2022-11-07T00:40:13.444Z,6.7
2022-11-07T00:41:12.845Z,6.7
2022-11-07T00:42:13.423Z,6.7
2022-11-07T00:43:13.048Z,6.7
2022-11-07T00:44:13.553Z,6.6
2022-11-07T00:45:13.191Z,6.6
2022-11-07T00:46:13.516Z,6.6
2022-11-07T00:47:12.829Z,6.6
2022-11-07T00:48:13.211Z,6.6
2022-11-07T00:49:13.611Z,6.6
2022-11-07T00:50:13.014Z,6.5
2022-11-07T00:51:13.404Z,6.5
2022-11-07T00:52:12.774Z,6.5
2022-11-07T00:53:13.534Z,6.4
2022-11-07T00:54:13.541Z,6.4
2022-11-07T00:55:12.869Z,6.4
2022-11-07T00:56:13.185Z,6.4
2022-11-07T00:57:13.425Z,6.4
2022-11-07T00:58:17.739Z,6.4
2022-11-07T00:59:13.158Z,6.4
2022-11-07T01:00:13.520Z,6.4
2022-11-07T01:01:13.070Z,6.4
2022-11-07T01:02:13.817Z,6.4
2022-11-07T01:03:12.895Z,6.4
2022-11-07T01:04:13.090Z,6.4
2022-11-07T01:07:13.108Z,6.3
2022-11-07T01:08:13.438Z,6.3
2022-11-07T01:09:12.738Z,6.3
2022-11-07T01:14:13.773Z,6.2
2022-11-07T01:15:13.055Z,6.3
2022-11-07T01:16:13.406Z,6.3
2022-11-07T01:17:13.631Z,6.3
2022-11-07T01:18:13.013Z,6.3
2022-11-07T01:19:13.303Z,6.3
2022-11-07T01:20:12.792Z,6.3
2022-11-07T01:21:20.242Z,6.3
2022-11-07T01:22:13.485Z,6.4
2022-11-07T01:23:13.048Z,6.4
2022-11-07T01:24:13.260Z,6.4
2022-11-07T01:25:13.597Z,6.4
2022-11-07T01:26:12.944Z,6.4
2022-11-07T01:27:13.280Z,6.4
2022-11-07T01:28:13.624Z,6.3
2022-11-07T01:29:12.947Z,6.3
2022-11-07T01:30:13.275Z,6.3
2022-11-07T01:31:13.667Z,6.3
2022-11-07T01:32:13.097Z,6.2
2022-11-07T01:33:14.140Z,6.2
2022-11-07T01:34:12.884Z,6.2
2022-11-07T01:35:13.183Z,6.2
2022-11-07T01:36:13.651Z,6.2
2022-11-07T01:37:12.955Z,6.2
2022-11-07T01:38:13.304Z,6.2
2022-11-07T01:41:13.277Z,6.2
2022-11-07T01:42:13.601Z,6.2
2022-11-07T01:43:13.234Z,6.1
2022-11-07T01:44:13.362Z,6.1
2022-11-07T01:45:12.744Z,6.1
2022-11-07T01:46:13.171Z,6.2
2022-11-07T01:47:13.429Z,6.2
2022-11-07T01:48:12.828Z,6.1
2022-11-07T01:49:13.064Z,6.1
2022-11-07T01:54:13.000Z,6.2
2022-11-07T01:55:13.318Z,6.2
2022-11-07T01:56:12.788Z,6.1
2022-11-07T01:57:13.116Z,6.1
2022-11-07T01:58:13.514Z,6.1
2022-11-07T01:59:12.852Z,6.1
2022-11-07T02:00:13.211Z,6.1
2022-11-07T02:01:13.489Z,6.1
2022-11-07T02:04:12.831Z,6.2
2022-11-07T02:05:13.232Z,6.2
2022-11-07T02:06:13.785Z,6.2
2022-11-07T02:07:13.008Z,6.2
2022-11-07T02:08:13.430Z,6.2
2022-11-07T02:09:13.624Z,6.3
2022-11-07T02:10:12.987Z,6.3
2022-11-07T02:11:13.316Z,6.3
2022-11-07T02:12:13.535Z,6.4
2022-11-07T02:13:13.091Z,6.4
2022-11-07T02:14:13.251Z,6.4
2022-11-07T02:15:13.797Z,6.4
2022-11-07T02:16:13.135Z,6.5
2022-11-07T02:17:13.595Z,6.5
2022-11-07T02:18:12.861Z,6.5
2022-11-07T02:19:13.024Z,6.6
2022-11-07T02:20:13.324Z,6.6
2022-11-07T02:21:12.884Z,6.6
2022-11-07T02:22:13.085Z,6.6
2022-11-07T02:23:14.029Z,6.7
2022-11-07T02:24:12.864Z,6.7
2022-11-07T02:25:13.559Z,6.7
2022-11-07T02:26:12.957Z,6.7
2022-11-07T02:27:13.334Z,6.7
2022-11-07T02:28:12.944Z,6.7
2022-11-07T02:29:13.098Z,6.7
2022-11-07T02:30:13.438Z,6.7
2022-11-07T02:33:14.012Z,6.7
2022-11-07T02:34:12.799Z,6.8
2022-11-07T02:35:13.245Z,6.8
2022-11-07T02:36:13.540Z,6.8
2022-11-07T02:37:12.993Z,6.8
2022-11-07T02:38:13.446Z,6.8
2022-11-07T02:39:13.335Z,6.8
2022-11-07T02:40:13.780Z,6.8
2022-11-07T02:41:12.957Z,6.8
2022-11-07T02:42:13.351Z,6.8
2022-11-07T02:43:13.165Z,6.9
2022-11-07T02:44:13.361Z,6.9
2022-11-07T02:45:13.673Z,7
2022-11-07T02:46:13.130Z,7
2022-11-07T02:47:13.539Z,7
2022-11-07T02:48:12.919Z,7
2022-11-07T02:49:13.230Z,7
2022-11-07T02:50:13.615Z,7
2022-11-07T02:51:13.030Z,7
2022-11-07T02:52:13.328Z,7
2022-11-07T02:53:14.312Z,7
2022-11-07T02:54:12.994Z,7
2022-11-07T02:55:13.342Z,7.1
2022-11-07T02:56:13.688Z,7.1
2022-11-07T02:57:13.024Z,7.1
2022-11-07T02:58:13.572Z,7.1
2022-11-07T02:59:12.842Z,7.1
2022-11-07T03:02:13.596Z,7.1
2022-11-07T03:03:13.857Z,7.1
2022-11-07T03:04:12.795Z,7.1
2022-11-07T03:05:13.215Z,7.1
2022-11-07T03:06:13.591Z,7.1
2022-11-07T03:07:12.936Z,7.1
2022-11-07T03:08:13.341Z,7.1
2022-11-07T03:09:13.748Z,7.1
2022-11-07T03:10:13.112Z,7.1
2022-11-07T03:11:13.451Z,7.1
2022-11-07T03:12:13.468Z,7.1
2022-11-07T03:13:14.143Z,7.1
2022-11-07T03:14:12.906Z,7.2
2022-11-07T03:15:13.952Z,7.2
2022-11-07T03:16:13.119Z,7.2
2022-11-07T03:17:13.442Z,7.2
2022-11-07T03:18:12.828Z,7.2
2022-11-07T03:21:13.143Z,7.2
2022-11-07T03:22:13.487Z,7.2
2022-11-07T03:23:13.092Z,7.2
2022-11-07T03:26:13.749Z,7.2
2022-11-07T03:27:13.069Z,7.2
2022-11-07T03:28:12.890Z,7.2
2022-11-07T03:29:13.253Z,7.2
2022-11-07T03:30:13.691Z,7.2
2022-11-07T03:31:13.058Z,7.2
2022-11-07T03:32:13.488Z,7.2
2022-11-07T03:33:13.046Z,7.2
2022-11-07T03:34:13.038Z,7.2
2022-11-07T03:35:13.405Z,7.2
2022-11-07T03:38:13.686Z,7.2
2022-11-07T03:39:13.012Z,7.2
2022-11-07T03:40:13.369Z,7.2
2022-11-07T03:41:13.729Z,7.2
2022-11-07T03:42:13.521Z,7.2
2022-11-07T03:43:12.393Z,7.2
2022-11-07T03:44:12.962Z,7.2
2022-11-07T03:45:13.288Z,7.2
2022-11-07T03:46:13.615Z,7.1
2022-11-07T03:47:12.942Z,7.1
2022-11-07T03:50:13.053Z,7.1
2022-11-07T03:51:13.411Z,7.1
2022-11-07T03:52:13.737Z,7
2022-11-07T03:53:13.374Z,7
2022-11-07T03:54:13.442Z,7
2022-11-07T03:55:13.115Z,6.9
2022-11-07T03:56:13.473Z,6.9
2022-11-07T03:57:12.753Z,6.9
2022-11-07T03:58:13.161Z,6.9
2022-11-07T03:59:13.421Z,6.9
2022-11-07T04:02:14.359Z,6.9
2022-11-07T04:03:13.204Z,6.9
2022-11-07T04:04:13.295Z,6.9
2022-11-07T04:05:13.484Z,6.9
2022-11-07T04:06:12.804Z,6.9
2022-11-07T04:07:13.063Z,6.9
2022-11-07T04:08:13.550Z,6.9
2022-11-07T04:09:12.839Z,6.9
2022-11-07T04:10:13.271Z,6.9
2022-11-07T04:11:13.608Z,6.8
2022-11-07T04:12:12.971Z,6.8
2022-11-07T04:15:13.121Z,6.8
2022-11-07T04:16:19.898Z,6.8
2022-11-07T04:17:12.867Z,6.8
2022-11-07T04:18:13.232Z,6.8
2022-11-07T04:19:13.555Z,6.8
2022-11-07T04:20:12.944Z,6.8
2022-11-07T04:21:13.233Z,6.8
2022-11-07T04:22:13.753Z,6.8
2022-11-07T04:25:12.817Z,6.6
2022-11-07T04:26:13.225Z,6.6
2022-11-07T04:27:13.599Z,6.6
2022-11-07T04:28:13.431Z,6.6
2022-11-07T04:29:12.758Z,6.5
2022-11-07T04:30:13.217Z,6.5
2022-11-07T04:33:13.919Z,6.4
2022-11-07T04:34:13.772Z,6.4
2022-11-07T04:35:13.014Z,6.4
2022-11-07T04:36:13.442Z,6.4
2022-11-07T04:37:12.840Z,6.3
2022-11-07T04:38:13.195Z,6.3
2022-11-07T04:39:13.529Z,6.3
2022-11-07T04:40:12.812Z,6.2
2022-11-07T04:41:13.194Z,6.2
2022-11-07T04:42:13.531Z,6.2
2022-11-07T04:43:13.145Z,6.2
2022-11-07T04:44:13.336Z,6.2
2022-11-07T04:45:13.652Z,6.1
2022-11-07T04:46:13.053Z,6.1
2022-11-07T04:49:12.990Z,6.1
2022-11-07T04:50:13.422Z,6.1
2022-11-07T04:51:13.772Z,6
2022-11-07T04:52:13.102Z,6
2022-11-07T04:53:14.355Z,6
2022-11-07T04:54:14.011Z,6
2022-11-07T04:55:13.417Z,6
2022-11-07T04:56:12.778Z,6
2022-11-07T04:57:13.207Z,5.9
2022-11-07T04:58:13.009Z,5.9
2022-11-07T05:01:12.926Z,5.7
2022-11-07T05:02:13.794Z,5.7
2022-11-07T05:03:14.592Z,5.7
2022-11-07T05:04:12.987Z,5.7
2022-11-07T05:05:13.454Z,5.7
2022-11-07T05:06:12.851Z,5.7
2022-11-07T05:07:13.157Z,5.7
2022-11-07T05:08:13.518Z,5.7
2022-11-07T05:09:12.885Z,5.6
2022-11-07T05:10:16.515Z,5.6
2022-11-07T05:11:13.499Z,5.6
2022-11-07T05:12:12.873Z,5.6
2022-11-07T05:13:13.679Z,5.6
2022-11-07T05:14:13.633Z,5.6
2022-11-07T05:15:13.015Z,5.6
2022-11-07T05:16:13.458Z,5.6
2022-11-07T05:17:13.741Z,5.6
2022-11-07T05:18:13.124Z,5.6
2022-11-07T05:19:13.443Z,5.5
2022-11-07T05:20:12.798Z,5.5
2022-11-07T05:21:12.999Z,5.4
2022-11-07T05:22:13.586Z,5.4
2022-11-07T05:25:12.799Z,5.2
2022-11-07T05:28:12.854Z,5.2
2022-11-07T05:29:13.176Z,5.2
2022-11-07T05:30:13.548Z,5.2
2022-11-07T05:31:12.830Z,5.2
2022-11-07T05:32:13.130Z,5.2
2022-11-07T05:33:13.816Z,5.2
2022-11-07T05:34:18.613Z,5.2
2022-11-07T05:35:13.368Z,5.2
2022-11-07T05:36:13.657Z,5.1
2022-11-07T05:37:13.053Z,5.1
2022-11-07T05:38:13.479Z,5
2022-11-07T05:39:13.771Z,5
2022-11-07T05:40:13.228Z,5
2022-11-07T05:41:13.315Z,5
2022-11-07T05:42:13.681Z,5
2022-11-07T05:43:13.285Z,5
2022-11-07T05:44:13.346Z,5
2022-11-07T05:47:13.604Z,4.9
2022-11-07T05:48:13.016Z,4.9
2022-11-07T05:49:13.271Z,4.9
2022-11-07T05:50:13.661Z,5
2022-11-07T05:51:12.999Z,5
2022-11-07T05:52:13.293Z,5
2022-11-07T05:53:14.484Z,5
2022-11-07T05:54:13.020Z,5
2022-11-07T05:55:13.427Z,5
2022-11-07T05:56:13.802Z,5
2022-11-07T05:59:12.898Z,5
2022-11-07T06:00:13.698Z,5.1
2022-11-07T06:01:13.017Z,5.1
2022-11-07T06:02:13.722Z,5
2022-11-07T06:03:14.163Z,5
2022-11-07T06:04:12.956Z,5.1
2022-11-07T06:05:13.292Z,5.1
2022-11-07T06:06:13.663Z,5.1
2022-11-07T06:07:12.980Z,5.1
2022-11-07T06:08:13.335Z,5.1
2022-11-07T06:11:13.442Z,5.1
2022-11-07T06:12:13.741Z,5.1
2022-11-07T06:13:13.892Z,5.2
2022-11-07T06:14:12.870Z,5.2
2022-11-07T06:15:13.313Z,5.2
2022-11-07T06:16:13.742Z,5.2
2022-11-07T06:17:13.084Z,5.2
2022-11-07T06:18:13.475Z,5.2
2022-11-07T06:19:12.869Z,5.2
2022-11-07T06:20:13.138Z,5.2
2022-11-07T06:21:13.520Z,5.2
2022-11-07T06:22:12.881Z,5.2
2022-11-07T06:23:13.397Z,5.3
2022-11-07T06:24:19.270Z,5.3
2022-11-07T06:25:12.852Z,5.3
2022-11-07T06:26:13.201Z,5.3
2022-11-07T06:27:13.657Z,5.3
2022-11-07T06:28:13.013Z,5.3
2022-11-07T06:29:13.356Z,5.3
2022-11-07T06:30:13.738Z,5.4
2022-11-07T06:31:13.138Z,5.4
2022-11-07T06:32:13.476Z,5.4
2022-11-07T06:33:12.931Z,5.4
2022-11-07T06:34:13.032Z,5.4
2022-11-07T06:35:13.368Z,5.4
2022-11-07T06:36:13.807Z,5.4
2022-11-07T06:37:13.133Z,5.4
2022-11-07T06:38:13.621Z,5.4
2022-11-07T06:39:13.065Z,5.4
2022-11-07T06:40:13.582Z,5.5
2022-11-07T06:41:12.833Z,5.5
2022-11-07T06:42:13.180Z,5.5
2022-11-07T06:43:13.863Z,5.5
2022-11-07T06:44:12.867Z,5.6
2022-11-07T06:45:13.115Z,5.5
2022-11-07T06:46:13.522Z,5.5
2022-11-07T06:47:12.843Z,5.6
2022-11-07T06:48:13.250Z,5.6
2022-11-07T06:49:13.675Z,5.6
2022-11-07T06:50:13.054Z,5.6
2022-11-07T06:51:13.377Z,5.6
2022-11-07T06:52:13.741Z,5.7
2022-11-07T06:53:13.339Z,5.7
2022-11-07T06:54:13.450Z,5.7
2022-11-07T06:55:13.748Z,5.7
2022-11-07T06:56:13.345Z,5.7
2022-11-07T06:57:13.452Z,5.7
2022-11-07T06:58:12.825Z,5.7
2022-11-07T06:59:13.173Z,5.7
2022-11-07T07:00:13.656Z,5.7
2022-11-07T07:01:13.155Z,5.9
2022-11-07T07:02:21.657Z,5.8
2022-11-07T07:03:13.967Z,5.8
2022-11-07T07:06:13.357Z,5.9
2022-11-07T07:07:13.716Z,5.9
2022-11-07T07:08:13.137Z,6
2022-11-07T07:09:13.540Z,6
2022-11-07T07:10:12.961Z,6
2022-11-07T07:11:13.268Z,6.1
2022-11-07T07:12:13.767Z,6.1
2022-11-07T07:13:13.286Z,6.1
2022-11-07T07:14:15.973Z,6.2
2022-11-07T07:15:13.453Z,6.2
2022-11-07T07:16:13.665Z,6.2
2022-11-07T07:17:12.972Z,6.2
2022-11-07T07:18:13.393Z,6.3
2022-11-07T07:21:13.375Z,6.4
2022-11-07T07:22:13.047Z,6.4
2022-11-07T07:23:13.458Z,6.4
2022-11-07T07:24:13.780Z,6.4
2022-11-07T07:25:13.125Z,6.5
2022-11-07T07:26:13.367Z,6.5
2022-11-07T07:27:13.659Z,6.5
2022-11-07T07:28:13.166Z,6.5
2022-11-07T07:29:13.398Z,6.5
2022-11-07T07:30:13.736Z,6.6
2022-11-07T07:31:13.388Z,6.6
2022-11-07T07:32:13.687Z,6.7
2022-11-07T07:33:13.168Z,6.8
2022-11-07T07:34:13.242Z,6.8
2022-11-07T07:35:13.172Z,6.8
2022-11-07T07:36:19.363Z,6.8
2022-11-07T07:37:13.761Z,6.9
2022-11-07T07:38:13.141Z,6.9
2022-11-07T07:39:13.483Z,6.9
2022-11-07T07:40:12.826Z,7
2022-11-07T07:41:13.203Z,7
2022-11-07T07:42:13.656Z,7
2022-11-07T07:45:13.761Z,7
2022-11-07T07:46:13.040Z,7
2022-11-07T07:47:15.875Z,7.1
2022-11-07T07:48:13.898Z,7.1
2022-11-07T07:49:13.198Z,7.2
2022-11-07T07:52:13.197Z,7.2
2022-11-07T07:53:13.814Z,7.2
2022-11-07T07:54:12.941Z,7.4
2022-11-07T07:55:13.778Z,7.4
2022-11-07T07:56:13.044Z,7.5
2022-11-07T07:57:13.391Z,7.5
2022-11-07T07:58:13.658Z,7.5
2022-11-07T07:59:13.522Z,7.6
2022-11-07T08:00:13.185Z,7.6
2022-11-07T08:01:13.544Z,7.7
2022-11-07T08:02:13.969Z,7.7
2022-11-07T08:03:13.434Z,7.6
2022-11-07T08:04:13.056Z,7.7
2022-11-07T08:05:13.302Z,7.7
2022-11-07T08:06:13.676Z,7.7
2022-11-07T08:07:13.072Z,7.7
2022-11-07T08:08:13.421Z,7.7
2022-11-07T08:09:13.696Z,7.7
2022-11-07T08:10:45.330Z,7.7
2022-11-07T08:11:13.456Z,7.8
2022-11-07T08:12:12.758Z,7.8
2022-11-07T08:13:13.349Z,7.8
2022-11-07T08:14:13.448Z,7.9
2022-11-07T08:15:12.897Z,7.9
2022-11-07T08:16:13.677Z,8
2022-11-07T08:17:12.912Z,8
2022-11-07T08:18:13.254Z,8
2022-11-07T08:19:13.609Z,8
2022-11-07T08:20:12.929Z,8.2
2022-11-07T08:21:13.186Z,8.2
2022-11-07T08:22:13.614Z,8.2
2022-11-07T08:23:20.502Z,8.3
2022-11-07T08:24:13.532Z,8.3
2022-11-07T08:25:12.929Z,8.4
2022-11-07T08:26:13.258Z,8.4
2022-11-07T08:27:13.496Z,8.4
2022-11-07T08:28:13.296Z,8.5
2022-11-07T08:29:13.535Z,8.5
2022-11-07T08:30:19.998Z,8.6
2022-11-07T08:31:13.194Z,8.6
2022-11-07T08:32:13.638Z,8.8
2022-11-07T08:33:13.242Z,8.8
2022-11-07T08:34:13.597Z,8.9
2022-11-07T08:35:13.712Z,9.1
2022-11-07T08:36:13.043Z,9.1
2022-11-07T08:37:13.385Z,9.3
2022-11-07T08:38:13.753Z,9.4
2022-11-07T08:39:13.022Z,9.4
2022-11-07T08:40:13.339Z,9.6
2022-11-07T08:41:12.850Z,9.6
2022-11-07T08:42:13.483Z,9.6
2022-11-07T08:43:12.892Z,9.6
2022-11-07T08:46:13.061Z,9.6
2022-11-07T08:47:13.439Z,9.6
2022-11-07T08:48:13.861Z,9.7
2022-11-07T08:49:13.190Z,9.8
2022-11-07T08:50:13.596Z,9.8
2022-11-07T08:51:12.975Z,9.9
2022-11-07T08:52:13.334Z,10
2022-11-07T08:53:13.696Z,10
2022-11-07T08:56:13.163Z,10.2
2022-11-07T08:57:13.539Z,10.2
2022-11-07T08:58:12.929Z,10.3
2022-11-07T08:59:13.213Z,10.3
2022-11-07T09:00:12.933Z,10.3
2022-11-07T09:01:13.568Z,10.4
2022-11-07T09:03:53.224Z,10.5
2022-11-07T09:03:58.404Z,10.5
2022-11-07T09:05:13.285Z,10.7
2022-11-07T09:06:13.732Z,10.9
2022-11-07T09:07:13.191Z,10.9
2022-11-07T09:08:13.503Z,11.1
2022-11-07T09:09:20.498Z,11.2
2022-11-07T09:10:13.279Z,11.2
2022-11-07T09:11:13.563Z,11.4
2022-11-07T09:12:12.867Z,11.4
2022-11-07T09:13:13.276Z,11.6
2022-11-07T09:14:13.433Z,11.6
2022-11-07T09:15:12.930Z,11.8
2022-11-07T09:16:13.261Z,12
2022-11-07T09:17:13.562Z,12
2022-11-07T09:18:13.011Z,12
2022-11-07T09:19:13.354Z,12
2022-11-07T09:20:13.650Z,12
2022-11-07T09:21:14.509Z,12
2022-11-07T09:22:13.335Z,12.1
2022-11-07T09:23:14.108Z,12.2
2022-11-07T09:24:12.988Z,12.2
2022-11-07T09:25:13.362Z,12.2
2022-11-07T09:26:13.752Z,12.2
2022-11-07T09:27:13.168Z,12.2
2022-11-07T09:28:13.575Z,12.3
2022-11-07T09:29:12.883Z,12.3
2022-11-07T09:30:13.196Z,12.5
2022-11-07T09:31:13.435Z,12.5
2022-11-07T09:32:47.380Z,12.7
2022-11-07T09:33:13.231Z,12.8
2022-11-07T09:34:13.500Z,12.8
2022-11-07T09:35:13.799Z,13.1
2022-11-07T09:36:13.091Z,13.1
2022-11-07T09:37:13.479Z,13.3
2022-11-07T09:38:12.911Z,13.3
2022-11-07T09:39:13.337Z,13.6
2022-11-07T09:40:13.660Z,13.8
2022-11-07T09:41:14.754Z,13.8
2022-11-07T09:42:13.428Z,14
2022-11-07T09:43:14.054Z,14
2022-11-07T09:44:13.087Z,14.1
2022-11-07T09:45:13.513Z,14.1
2022-11-07T09:46:12.937Z,14.2
2022-11-07T09:47:13.275Z,14.2
2022-11-07T09:48:13.678Z,14.2
2022-11-07T09:49:13.028Z,14.2
2022-11-07T09:50:13.420Z,14.2
2022-11-07T09:51:13.772Z,14.2
2022-11-07T09:52:13.045Z,14.2
2022-11-07T09:53:13.523Z,14.2
2022-11-07T09:56:13.542Z,14.1
2022-11-07T09:57:18.325Z,14.1
2022-11-07T09:58:13.195Z,14.1
2022-11-07T09:59:18.352Z,14.1
2022-11-07T10:00:13.022Z,14.1
2022-11-07T10:01:13.658Z,14.2
2022-11-07T10:02:14.183Z,14.2
2022-11-07T10:03:13.757Z,14.4
2022-11-07T10:04:30.659Z,14.5
2022-11-07T10:05:13.395Z,14.5
2022-11-07T10:06:13.648Z,14.6
2022-11-07T10:07:13.064Z,14.6
2022-11-07T10:08:13.308Z,14.6
2022-11-07T10:09:13.768Z,14.6
2022-11-07T10:10:13.084Z,14.7
2022-11-07T10:11:13.423Z,14.7
2022-11-07T10:12:13.807Z,14.7
2022-11-07T10:13:13.207Z,14.7
2022-11-07T10:14:13.493Z,14.7
2022-11-07T10:15:13.746Z,14.8
2022-11-07T10:16:13.131Z,14.8
2022-11-07T10:17:13.562Z,14.8
2022-11-07T10:18:12.944Z,14.8
2022-11-07T10:19:13.382Z,14.8
2022-11-07T10:20:13.710Z,14.8
2022-11-07T10:21:41.666Z,14.9
2022-11-07T10:22:13.860Z,14.9
2022-11-07T10:23:13.758Z,15
2022-11-07T10:24:13.860Z,15
2022-11-07T10:25:13.102Z,15.2
2022-11-07T10:26:13.358Z,15.2
2022-11-07T10:27:13.804Z,15.4
2022-11-07T10:28:13.264Z,15.6
2022-11-07T10:29:13.519Z,15.6
2022-11-07T10:30:13.061Z,15.8
2022-11-07T10:31:13.354Z,15.8
2022-11-07T10:32:13.656Z,16
2022-11-07T10:33:13.190Z,16
2022-11-07T10:34:13.435Z,16
2022-11-07T10:35:13.765Z,16.1
2022-11-07T10:36:13.052Z,16.1
2022-11-07T10:37:13.348Z,16.2
2022-11-07T10:38:13.755Z,16.2
2022-11-07T10:39:13.202Z,16.4
2022-11-07T10:40:16.135Z,16.4
2022-11-07T10:43:13.895Z,16.8
2022-11-07T10:44:13.232Z,16.8
2022-11-07T10:45:13.275Z,17
2022-11-07T10:46:13.675Z,17
2022-11-07T10:47:13.032Z,17.3
2022-11-07T10:48:13.592Z,17.3
2022-11-07T10:49:13.777Z,17.5
2022-11-07T10:50:13.235Z,17.5
2022-11-07T10:51:13.576Z,17.6
2022-11-07T10:52:13.065Z,17.7
2022-11-07T10:53:13.334Z,17.7
2022-11-07T10:54:15.893Z,18
2022-11-07T10:55:13.206Z,18
2022-11-07T10:56:13.495Z,18.3
2022-11-07T10:57:13.718Z,18.3
2022-11-07T10:58:13.350Z,18.5
2022-11-07T10:59:13.580Z,18.6
2022-11-07T11:00:13.113Z,18.6
2022-11-07T11:01:13.695Z,18.8
2022-11-07T11:02:13.107Z,18.8
2022-11-07T11:05:12.890Z,19.2
2022-11-07T11:06:13.303Z,19.4
2022-11-07T11:07:13.562Z,19.4
2022-11-07T11:08:13.142Z,19.5
2022-11-07T11:09:13.342Z,19.5
2022-11-07T11:10:13.695Z,19.6
2022-11-07T11:11:13.060Z,19.6
2022-11-07T11:12:13.343Z,19.8
2022-11-07T11:13:13.750Z,19.9
2022-11-07T11:14:13.186Z,19.9
2022-11-07T11:15:13.552Z,19.9
2022-11-07T11:16:12.934Z,20
2022-11-07T11:17:13.407Z,20
2022-11-07T11:18:13.934Z,20
2022-11-07T11:19:12.961Z,20
2022-11-07T11:20:13.319Z,20.1
2022-11-07T11:21:13.670Z,20.1
2022-11-07T11:22:13.925Z,20.2
2022-11-07T11:23:13.891Z,20.3
2022-11-07T11:24:13.860Z,20.3
2022-11-07T11:25:13.237Z,20.4
2022-11-07T11:26:13.519Z,20.4
2022-11-07T11:27:13.227Z,20.4
2022-11-07T11:28:13.795Z,20.4
2022-11-07T11:29:13.769Z,20.4
2022-11-07T11:30:13.166Z,20.4
2022-11-07T11:31:13.786Z,20.4
2022-11-07T11:32:13.314Z,20.3
2022-11-07T11:33:13.967Z,20.3
2022-11-07T11:34:12.946Z,20.3
2022-11-07T11:35:13.317Z,20.3
2022-11-07T11:36:13.680Z,20.2
2022-11-07T11:37:12.983Z,20
2022-11-07T11:38:13.279Z,20
2022-11-07T11:39:13.600Z,19.9
2022-11-07T11:40:12.964Z,19.8
2022-11-07T11:41:15.281Z,19.8
2022-11-07T11:42:13.735Z,19.6
2022-11-07T11:43:13.213Z,19.6
2022-11-07T11:44:13.494Z,19.5
2022-11-07T11:45:13.893Z,19.5
2022-11-07T11:46:13.196Z,19.3
2022-11-07T11:47:13.581Z,19.2
2022-11-07T11:48:13.058Z,19.2
2022-11-07T11:49:13.225Z,18.9
2022-11-07T11:50:13.567Z,18.9
2022-11-07T11:51:12.943Z,18.8
2022-11-07T11:52:13.349Z,18.8
2022-11-07T11:53:14.040Z,18.8
2022-11-07T11:54:13.115Z,18.8
2022-11-07T11:55:13.813Z,18.8
2022-11-07T11:56:13.169Z,18.7
2022-11-07T11:57:13.690Z,18.7
2022-11-07T11:58:13.203Z,18.6
2022-11-07T11:59:13.424Z,18.6
2022-11-07T12:00:13.796Z,18.4
2022-11-07T12:01:13.169Z,18.4
2022-11-07T12:02:13.596Z,18.4
2022-11-07T12:05:13.571Z,18.3
2022-11-07T12:06:12.943Z,18.3
2022-11-07T12:07:13.277Z,18.2
2022-11-07T12:08:13.656Z,18.1
2022-11-07T12:09:20.352Z,18.1
2022-11-07T12:10:13.348Z,17.9
2022-11-07T12:11:13.218Z,17.8
2022-11-07T12:12:13.602Z,17.8
2022-11-07T12:13:13.269Z,17.7
2022-11-07T12:14:13.444Z,17.7
2022-11-07T12:15:13.891Z,17.8
2022-11-07T12:16:13.213Z,17.8
2022-11-07T12:17:13.649Z,17.9
2022-11-07T12:18:12.875Z,18
2022-11-07T12:19:13.140Z,18
2022-11-07T12:20:13.583Z,17.8
2022-11-07T12:21:13.841Z,17.8
2022-11-07T12:22:13.196Z,17.7
2022-11-07T12:23:13.785Z,17.7
2022-11-07T12:24:13.995Z,17.6
2022-11-07T12:25:13.237Z,17.5
2022-11-07T12:26:13.634Z,17.5
2022-11-07T12:27:13.024Z,17.3
2022-11-07T12:28:13.333Z,17.3
2022-11-07T12:29:13.694Z,17.3
2022-11-07T12:30:13.589Z,17.3
2022-11-07T12:31:12.995Z,17.3
2022-11-07T12:34:13.032Z,17.2
2022-11-07T12:37:13.167Z,17.1
2022-11-07T12:38:13.633Z,17.1
2022-11-07T12:41:13.250Z,16.9
2022-11-07T12:42:13.652Z,16.8
2022-11-07T12:43:13.024Z,16.8
2022-11-07T12:44:13.330Z,16.6
2022-11-07T12:45:13.726Z,16.6
2022-11-07T12:46:13.130Z,16.6
2022-11-07T12:47:13.517Z,16.6
2022-11-07T12:48:17.443Z,16.5
2022-11-07T12:49:13.015Z,16.4
2022-11-07T12:50:13.490Z,16.4
2022-11-07T12:51:13.703Z,16.4
2022-11-07T12:52:13.091Z,16.4
2022-11-07T12:55:13.331Z,16.4
2022-11-07T12:56:13.665Z,16.4
2022-11-07T12:57:13.047Z,16.4
2022-11-07T12:58:13.581Z,16.4
2022-11-07T12:59:13.863Z,16.4
2022-11-07T13:00:13.218Z,16.4
2022-11-07T13:03:13.438Z,16.3
2022-11-07T13:04:13.607Z,16.3
2022-11-07T13:05:12.944Z,16.4
2022-11-07T13:06:13.392Z,16.4
2022-11-07T13:07:13.186Z,16.4
2022-11-07T13:08:13.664Z,16.4
2022-11-07T13:09:13.859Z,16.4
2022-11-07T13:10:13.129Z,16.4
2022-11-07T13:11:13.503Z,16.4
2022-11-07T13:12:13.818Z,16.3
2022-11-07T13:15:13.019Z,16.2
2022-11-07T13:16:19.990Z,16.2
2022-11-07T13:19:13.623Z,16.2
2022-11-07T13:22:13.797Z,16
2022-11-07T13:23:13.099Z,16
2022-11-07T13:24:13.376Z,16
2022-11-07T13:25:20.320Z,15.8
2022-11-07T13:26:52.489Z,15.8
2022-11-07T13:27:13.310Z,15.7
2022-11-07T13:28:13.780Z,15.7
2022-11-07T13:29:13.154Z,15.7
2022-11-07T13:32:13.195Z,15.6
2022-11-07T13:33:13.670Z,15.6
2022-11-07T13:34:13.815Z,15.6
2022-11-07T13:35:13.185Z,15.6
2022-11-07T13:36:13.600Z,15.5
2022-11-07T13:37:12.959Z,15.5
2022-11-07T13:38:13.359Z,15.5
2022-11-07T13:39:13.670Z,15.5
2022-11-07T13:40:13.110Z,15.5
2022-11-07T13:41:13.628Z,15.4
2022-11-07T13:42:13.027Z,15.4
2022-11-07T13:43:13.387Z,15.4
2022-11-07T13:44:13.639Z,15.4
2022-11-07T13:45:13.077Z,15.4
2022-11-07T13:46:13.407Z,15.3
2022-11-07T13:47:13.704Z,15.3
2022-11-07T13:48:13.275Z,15.2
2022-11-07T13:49:13.572Z,15.2
2022-11-07T13:50:12.929Z,15.2
2022-11-07T13:51:13.420Z,15.1
2022-11-07T13:52:13.716Z,15.1
2022-11-07T13:53:13.013Z,15.1
2022-11-07T13:54:13.308Z,15
2022-11-07T13:55:13.619Z,15
2022-11-07T13:56:13.105Z,15
2022-11-07T13:57:13.367Z,15
2022-11-07T13:58:13.847Z,15
2022-11-07T13:59:13.197Z,15
2022-11-07T14:02:13.872Z,14.8
2022-11-07T14:03:14.065Z,14.8
2022-11-07T14:04:13.139Z,14.8
2022-11-07T14:05:21.159Z,14.8
2022-11-07T14:06:13.856Z,14.8
2022-11-07T14:07:13.287Z,14.8
2022-11-07T14:08:13.690Z,14.7
2022-11-07T14:09:13.038Z,14.7
2022-11-07T14:10:13.367Z,14.7
2022-11-07T14:11:13.789Z,14.7
2022-11-07T14:14:13.848Z,14.7
2022-11-07T14:15:13.192Z,14.7
2022-11-07T14:16:13.571Z,14.7
2022-11-07T14:17:13.812Z,14.6
2022-11-07T14:18:13.279Z,14.6
2022-11-07T14:19:13.177Z,14.6
2022-11-07T14:20:13.538Z,14.6
2022-11-07T14:21:13.884Z,14.6
2022-11-07T14:22:18.896Z,14.6
2022-11-07T14:23:14.030Z,14.6
2022-11-07T14:26:12.997Z,14.5
2022-11-07T14:27:13.289Z,14.5
2022-11-07T14:28:13.889Z,14.5
2022-11-07T14:31:13.881Z,14.5
2022-11-07T14:32:13.217Z,14.5
2022-11-07T14:33:13.803Z,14.5
2022-11-07T14:34:13.090Z,14.4
2022-11-07T14:35:13.446Z,14.4
2022-11-07T14:36:13.760Z,14.4
2022-11-07T14:37:13.020Z,14.4
2022-11-07T14:38:13.602Z,14.4
2022-11-07T14:39:19.541Z,14.5
2022-11-07T14:40:13.219Z,14.5
2022-11-07T14:43:13.312Z,14.4
2022-11-07T14:44:13.697Z,14.4
2022-11-07T14:45:13.169Z,14.4
2022-11-07T14:46:18.222Z,14.4
2022-11-07T14:47:13.795Z,14.4
2022-11-07T14:48:13.209Z,14.4
2022-11-07T14:49:13.287Z,14.4
2022-11-07T14:50:13.723Z,14.4
2022-11-07T14:51:13.349Z,14.4
2022-11-07T14:52:19.573Z,14.4
2022-11-07T14:53:13.063Z,14.4
2022-11-07T14:54:13.502Z,14.4
2022-11-07T14:55:13.879Z,14.3
2022-11-07T14:56:13.193Z,14.4
2022-11-07T14:57:13.510Z,14.4
2022-11-07T14:58:14.127Z,14.4
2022-11-07T14:59:13.573Z,14.4
2022-11-07T15:00:13.025Z,14.3
2022-11-07T15:01:13.574Z,14.3
2022-11-07T15:02:14.240Z,14.4
2022-11-07T15:03:13.135Z,14.2
2022-11-07T15:04:13.465Z,14.2
2022-11-07T15:05:15.572Z,14.3
2022-11-07T15:06:13.283Z,14.3
2022-11-07T15:07:13.602Z,14.3
2022-11-07T15:08:12.974Z,14.3
2022-11-07T15:09:13.257Z,14.3
2022-11-07T15:10:13.626Z,14.2
2022-11-07T15:11:12.978Z,14.2
2022-11-07T15:12:13.332Z,14.2
2022-11-07T15:15:13.476Z,14.2
2022-11-07T15:16:13.950Z,14.2
2022-11-07T15:17:13.277Z,14.2
2022-11-07T15:18:14.061Z,14.2
2022-11-07T15:19:13.240Z,14
2022-11-07T15:20:13.216Z,14
2022-11-07T15:21:13.681Z,14
2022-11-07T15:24:19.928Z,13.9